createdAt,value
2022-09-17T00:01:25.048Z,0.90
2022-09-17T00:03:59.279Z,0.60
2022-09-17T00:06:26.876Z,0.50
2022-09-17T00:08:54.875Z,1.42
2022-09-17T00:11:26.405Z,0.77
2022-09-17T00:13:54.731Z,0.50
2022-09-17T00:16:28.847Z,0.70
2022-09-17T00:18:56.928Z,0.50
2022-09-17T00:21:24.448Z,0.65
2022-09-17T00:23:59.923Z,0.52
2022-09-17T00:26:28.365Z,1.65
2022-09-17T00:28:57.063Z,0.80
2022-09-17T00:31:25.472Z,1.23
2022-09-17T00:33:54.158Z,0.65
2022-09-17T00:36:21.971Z,0.90
2022-09-17T00:38:53.834Z,0.98
2022-09-17T00:41:22.776Z,0.95
2022-09-17T00:43:55.196Z,0.52
2022-09-17T00:46:42.103Z,0.70
2022-09-17T00:49:15.696Z,0.70
2022-09-17T00:51:57.036Z,0.98
2022-09-17T00:54:27.054Z,1.17
2022-09-17T00:56:54.166Z,1.15
2022-09-17T00:59:23.085Z,0.57
2022-09-17T01:01:50.483Z,0.65
2022-09-17T01:04:26.802Z,1.23
2022-09-17T01:07:17.177Z,1.27
2022-09-17T01:09:56.811Z,1.35
2022-09-17T01:12:45.021Z,0.77
2022-09-17T01:15:44.984Z,0.80
2022-09-17T01:18:22.821Z,1.38
2022-09-17T01:21:08.356Z,0.73
2022-09-17T01:23:56.530Z,1.20
2022-09-17T01:26:48.146Z,0.73
2022-09-17T01:29:53.655Z,1.15
2022-09-17T01:32:46.981Z,0.63
2022-09-17T01:35:32.126Z,0.88
2022-09-17T01:38:05.914Z,2.03
2022-09-17T01:40:42.037Z,0.60
2022-09-17T01:43:24.925Z,0.60
2022-09-17T01:46:19.449Z,1.02
2022-09-17T01:48:49.607Z,0.70
2022-09-17T01:51:29.295Z,0.57
2022-09-17T01:54:18.242Z,0.50
2022-09-17T01:57:02.125Z,0.65
2022-09-17T02:00:05.344Z,0.90
2022-09-17T02:02:38.842Z,0.55
2022-09-17T02:05:11.780Z,1.10
2022-09-17T02:08:05.510Z,0.77
2022-09-17T02:10:38.271Z,1.55
2022-09-17T02:13:11.407Z,0.85
2022-09-17T02:15:43.713Z,0.65
2022-09-17T02:18:16.076Z,1.20
2022-09-17T02:20:52.926Z,0.50
2022-09-17T02:23:37.896Z,2.42
2022-09-17T02:26:15.606Z,1.05
2022-09-17T02:28:54.196Z,1.08
2022-09-17T02:31:21.550Z,0.90
2022-09-17T02:33:52.109Z,0.40
2022-09-17T02:36:20.256Z,0.43
2022-09-17T02:38:47.501Z,0.98
2022-09-17T02:41:23.226Z,2.38
2022-09-17T02:44:22.321Z,1.20
2022-09-17T02:47:03.010Z,0.50
2022-09-17T02:49:50.290Z,0.65
2022-09-17T02:52:23.550Z,1.08
2022-09-17T02:55:03.965Z,0.65
2022-09-17T02:57:39.965Z,0.50
2022-09-17T03:00:18.600Z,0.57
2022-09-17T03:02:50.306Z,0.40
2022-09-17T03:05:23.122Z,0.73
2022-09-17T03:07:50.725Z,0.93
2022-09-17T03:10:18.931Z,0.40
2022-09-17T03:12:46.095Z,0.70
2022-09-17T03:15:13.216Z,0.95
2022-09-17T03:17:40.334Z,0.57
2022-09-17T03:20:07.696Z,0.55
2022-09-17T03:22:35.849Z,0.70
2022-09-17T03:25:03.005Z,0.55
2022-09-17T03:27:30.112Z,0.57
2022-09-17T03:29:57.620Z,1.13
2022-09-17T03:32:24.845Z,1.23
2022-09-17T03:34:51.880Z,1.92
2022-09-17T03:37:18.976Z,1.75
2022-09-17T03:39:46.120Z,0.30
2022-09-17T03:42:13.502Z,1.95
2022-09-17T03:44:45.418Z,0.43
2022-09-17T03:47:12.726Z,1.05
2022-09-17T03:49:42.228Z,0.55
2022-09-17T03:52:11.025Z,0.65
2022-09-17T03:54:38.038Z,0.50
2022-09-17T03:57:05.196Z,1.38
2022-09-17T03:59:32.225Z,0.90
2022-09-17T04:01:59.518Z,0.50
2022-09-17T04:04:26.764Z,0.77
2022-09-17T04:06:54.658Z,1.13
2022-09-17T04:09:21.791Z,0.52
2022-09-17T04:11:48.941Z,0.60
2022-09-17T04:14:16.046Z,0.43
2022-09-17T04:16:43.361Z,0.43
2022-09-17T04:19:10.422Z,0.77
2022-09-17T04:21:37.532Z,0.60
2022-09-17T04:24:04.821Z,1.38
2022-09-17T04:26:31.951Z,0.63
2022-09-17T04:28:58.991Z,1.50
2022-09-17T04:31:27.334Z,0.63
2022-09-17T04:33:56.661Z,1.50
2022-09-17T04:36:23.690Z,1.70
2022-09-17T04:38:51.121Z,0.40
2022-09-17T04:41:18.321Z,1.25
2022-09-17T04:43:45.653Z,0.95
2022-09-17T04:46:14.418Z,1.55
2022-09-17T04:48:41.611Z,1.50
2022-09-17T04:51:08.866Z,0.32
2022-09-17T04:53:36.020Z,0.65
2022-09-17T04:56:03.080Z,0.90
2022-09-17T04:58:31.590Z,0.88
2022-09-17T05:00:58.702Z,0.75
2022-09-17T05:03:26.137Z,4.28
2022-09-17T05:05:53.265Z,4.80
2022-09-17T05:08:20.276Z,4.20
2022-09-17T05:10:47.302Z,7.82
2022-09-17T05:13:14.282Z,3.65
2022-09-17T05:15:41.400Z,3.05
2022-09-17T05:18:08.645Z,4.18
2022-09-17T05:20:35.720Z,2.03
2022-09-17T05:23:02.845Z,3.17
2022-09-17T05:25:29.986Z,4.80
2022-09-17T05:27:57.211Z,2.67
2022-09-17T05:30:24.421Z,2.42
2022-09-17T05:33:03.330Z,5.22
2022-09-17T05:35:31.825Z,1.35
2022-09-17T05:38:00.840Z,1.40
2022-09-17T05:40:28.777Z,1.77
2022-09-17T05:43:03.680Z,1.75
2022-09-17T05:45:32.790Z,0.98
2022-09-17T05:48:01.497Z,1.10
2022-09-17T05:50:29.766Z,0.80
2022-09-17T05:52:57.146Z,0.80
2022-09-17T05:55:24.780Z,0.50
2022-09-17T05:57:51.976Z,1.45
2022-09-17T06:00:19.400Z,1.85
2022-09-17T06:02:46.545Z,0.65
2022-09-17T06:05:13.656Z,0.55
2022-09-17T06:07:40.741Z,1.13
2022-09-17T06:10:08.683Z,2.08
2022-09-17T06:12:35.871Z,1.25
2022-09-17T06:15:04.530Z,1.25
2022-09-17T06:17:36.184Z,1.25
2022-09-17T06:20:05.196Z,0.68
2022-09-17T06:22:32.799Z,2.78
2022-09-17T06:25:02.407Z,0.55
2022-09-17T06:27:33.366Z,1.98
2022-09-17T06:30:01.000Z,0.65
2022-09-17T06:32:29.315Z,2.25
2022-09-17T06:34:57.727Z,1.27
2022-09-17T06:37:32.230Z,0.40
2022-09-17T06:39:59.871Z,0.60
2022-09-17T06:42:28.645Z,1.92
2022-09-17T06:44:55.790Z,0.70
2022-09-17T06:47:24.946Z,1.88
2022-09-17T06:49:52.735Z,2.75
2022-09-17T06:52:19.861Z,2.60
2022-09-17T06:54:46.880Z,1.77
2022-09-17T06:57:13.897Z,1.67
2022-09-17T06:59:41.013Z,2.50
2022-09-17T07:02:09.830Z,4.30
2022-09-17T07:04:36.850Z,1.63
2022-09-17T07:07:06.496Z,3.35
2022-09-17T07:09:33.573Z,3.42
2022-09-17T07:12:06.766Z,2.17
2022-09-17T07:14:34.006Z,5.78
2022-09-17T07:17:01.096Z,1.77
2022-09-17T07:19:28.156Z,1.20
2022-09-17T07:21:57.523Z,3.13
2022-09-17T07:24:24.491Z,1.40
2022-09-17T07:26:51.921Z,1.42
2022-09-17T07:29:18.972Z,1.73
2022-09-17T07:31:46.132Z,2.17
2022-09-17T07:34:13.336Z,2.25
2022-09-17T07:36:40.391Z,1.60
2022-09-17T07:39:07.490Z,1.73
2022-09-17T07:41:34.911Z,2.42
2022-09-17T07:44:02.752Z,2.17
2022-09-17T07:46:30.264Z,1.75
2022-09-17T07:48:57.360Z,1.98
2022-09-17T07:51:27.926Z,3.08
2022-09-17T07:53:57.841Z,2.72
2022-09-17T07:56:26.287Z,1.27
2022-09-17T07:58:53.600Z,2.92
2022-09-17T08:01:22.719Z,3.08
2022-09-17T08:03:52.195Z,3.08
2022-09-17T08:06:33.835Z,2.65
2022-09-17T08:09:01.528Z,2.95
2022-09-17T08:11:55.634Z,2.25
2022-09-17T08:14:17.382Z,1.23
2022-09-17T08:16:46.529Z,1.35
2022-09-17T08:19:13.595Z,1.52
2022-09-17T08:21:40.695Z,2.17
2022-09-17T08:24:07.846Z,1.08
2022-09-17T08:26:35.166Z,0.90
2022-09-17T08:29:02.356Z,1.20
2022-09-17T08:31:30.795Z,2.05
2022-09-17T08:33:58.105Z,0.63
2022-09-17T08:36:26.640Z,1.50
2022-09-17T08:38:55.002Z,0.60
2022-09-17T08:41:40.521Z,0.77
2022-09-17T08:44:41.610Z,0.77
2022-09-17T08:47:22.657Z,1.05
2022-09-17T08:50:04.622Z,0.40
2022-09-17T08:53:13.620Z,0.65
2022-09-17T08:55:51.656Z,0.68
2022-09-17T08:58:37.390Z,0.45
2022-09-17T09:01:23.848Z,1.05
2022-09-17T09:04:03.670Z,0.70
2022-09-17T09:06:36.711Z,1.00
2022-09-17T09:09:11.466Z,1.10
2022-09-17T09:11:40.365Z,0.98
2022-09-17T09:14:31.361Z,0.75
2022-09-17T09:17:00.326Z,1.48
2022-09-17T09:19:47.102Z,0.52
2022-09-17T09:22:23.197Z,1.00
2022-09-17T09:25:18.196Z,0.63
2022-09-17T09:28:15.341Z,0.90
2022-09-17T09:31:07.374Z,0.82
2022-09-17T09:33:39.056Z,0.68
2022-09-17T09:36:14.606Z,1.80
2022-09-17T09:41:31.486Z,1.42
2022-09-17T09:44:04.983Z,0.88
2022-09-17T09:46:58.025Z,0.98
2022-09-17T09:49:25.078Z,1.52
2022-09-17T09:52:06.951Z,2.08
2022-09-17T09:54:33.887Z,1.27
2022-09-17T09:57:07.696Z,2.22
2022-09-17T09:59:36.366Z,0.77
2022-09-17T10:02:03.822Z,1.00
2022-09-17T10:04:32.936Z,0.50
2022-09-17T10:07:11.410Z,1.13
2022-09-17T10:09:44.982Z,1.20
2022-09-17T10:12:12.012Z,0.73
2022-09-17T10:14:40.316Z,3.40
2022-09-17T10:17:26.997Z,1.88
2022-09-17T10:20:00.045Z,1.17
2022-09-17T10:22:34.060Z,0.82
2022-09-17T10:25:02.791Z,0.93
2022-09-17T10:27:30.826Z,1.08
2022-09-17T10:30:15.616Z,1.00
2022-09-17T10:32:42.696Z,0.80
2022-09-17T10:35:15.461Z,0.93
2022-09-17T10:37:48.026Z,1.45
2022-09-17T10:40:21.082Z,1.17
2022-09-17T10:42:49.817Z,1.23
2022-09-17T10:45:28.007Z,1.50
2022-09-17T10:47:58.011Z,1.50
2022-09-17T10:50:32.295Z,1.58
2022-09-17T10:53:15.216Z,1.17
2022-09-17T10:56:10.876Z,1.08
2022-09-17T10:59:02.742Z,1.80
2022-09-17T11:02:00.807Z,1.77
2022-09-17T11:04:46.426Z,1.80
2022-09-17T11:07:28.576Z,1.27
2022-09-17T11:09:58.561Z,1.52
2022-09-17T11:12:48.721Z,1.88
2022-09-17T11:15:44.206Z,2.10
2022-09-17T11:18:41.295Z,2.13
2022-09-17T11:21:35.486Z,1.35
2022-09-17T11:24:16.426Z,1.85
2022-09-17T11:27:03.678Z,1.63
2022-09-17T11:29:49.181Z,1.50
2022-09-17T11:32:40.595Z,2.05
2022-09-17T11:35:31.156Z,3.08
2022-09-17T11:38:16.196Z,3.22
2022-09-17T11:41:12.436Z,3.33
2022-09-17T11:43:53.799Z,1.92
2022-09-17T11:46:30.834Z,1.92
2022-09-17T11:49:28.552Z,1.92
2022-09-17T11:52:21.992Z,2.13
2022-09-17T11:54:57.847Z,3.22
2022-09-17T11:57:35.561Z,1.85
2022-09-17T12:00:06.105Z,2.63
2022-09-17T12:02:59.203Z,2.47
2022-09-17T12:05:31.439Z,1.88
2022-09-17T12:08:19.761Z,2.17
2022-09-17T12:11:10.188Z,1.92
2022-09-17T12:13:46.956Z,2.70
2022-09-17T12:16:13.991Z,2.55
2022-09-17T12:18:58.701Z,3.05
2022-09-17T12:21:42.091Z,1.60
2022-09-17T12:24:26.832Z,2.50
2022-09-17T12:27:30.360Z,2.72
2022-09-17T12:30:10.878Z,2.08
2022-09-17T12:33:03.340Z,1.75
2022-09-17T12:36:00.226Z,1.25
2022-09-17T12:38:41.901Z,2.20
2022-09-17T12:41:31.565Z,1.63
2022-09-17T12:44:35.779Z,1.30
2022-09-17T12:47:36.671Z,1.80
2022-09-17T12:50:20.402Z,1.42
2022-09-17T12:53:15.346Z,2.55
2022-09-17T12:55:57.655Z,2.60
2022-09-17T12:58:36.495Z,2.05
2022-09-17T13:01:18.056Z,1.48
2022-09-17T13:03:55.107Z,2.65
2022-09-17T13:06:51.457Z,1.42
2022-09-17T13:09:55.955Z,2.22
2022-09-17T13:12:22.861Z,1.80
2022-09-17T13:15:31.102Z,1.90
2022-09-17T13:18:26.513Z,2.55
2022-09-17T13:21:18.130Z,3.10
2022-09-17T13:23:48.757Z,1.80
2022-09-17T13:26:23.330Z,2.33
2022-09-17T13:28:52.556Z,1.20
2022-09-17T13:31:42.787Z,1.30
2022-09-17T13:34:19.162Z,1.77
2022-09-17T13:36:49.041Z,1.90
2022-09-17T13:39:38.710Z,2.53
2022-09-17T13:42:28.221Z,1.48
2022-09-17T13:45:19.045Z,1.70
2022-09-17T13:48:01.906Z,1.70
2022-09-17T13:50:40.841Z,1.25
2022-09-17T13:53:18.351Z,1.98
2022-09-17T13:55:48.275Z,1.33
2022-09-17T13:58:21.211Z,1.52
2022-09-17T14:00:51.089Z,1.27
2022-09-17T14:03:54.086Z,1.80
2022-09-17T14:06:24.789Z,2.10
2022-09-17T14:08:54.660Z,2.22
2022-09-17T14:11:24.605Z,2.30
2022-09-17T14:14:14.856Z,1.45
2022-09-17T14:16:41.866Z,2.30
2022-09-17T14:19:26.777Z,1.27
2022-09-17T14:22:06.092Z,3.20
2022-09-17T14:24:44.508Z,3.22
2022-09-17T14:27:15.532Z,1.65
2022-09-17T14:29:56.718Z,4.57
2022-09-17T14:32:47.665Z,1.33
2022-09-17T14:35:44.326Z,2.72
2022-09-17T14:38:18.656Z,2.13
2022-09-17T14:41:13.095Z,1.92
2022-09-17T14:44:01.421Z,1.50
2022-09-17T14:46:30.573Z,1.27
2022-09-17T14:49:29.850Z,0.80
2022-09-17T14:52:01.890Z,1.88
2022-09-17T14:54:36.229Z,1.80
2022-09-17T14:57:09.438Z,2.15
2022-09-17T14:59:59.635Z,2.28
2022-09-17T15:02:42.075Z,2.40
2022-09-17T15:05:29.818Z,0.88
2022-09-17T15:08:10.005Z,2.25
2022-09-17T15:10:45.242Z,2.00
2022-09-17T15:13:16.181Z,2.88
2022-09-17T15:15:53.809Z,2.05
2022-09-17T15:18:22.467Z,1.23
2022-09-17T15:20:51.476Z,1.65
2022-09-17T15:23:26.001Z,1.98
2022-09-17T15:25:57.189Z,2.70
2022-09-17T15:28:39.209Z,2.88
2022-09-17T15:31:14.584Z,2.67
2022-09-17T15:33:42.901Z,2.45
2022-09-17T15:36:21.615Z,1.58
2022-09-17T15:38:49.641Z,1.40
2022-09-17T15:41:24.642Z,2.28
2022-09-17T15:43:51.973Z,2.88
2022-09-17T15:46:28.422Z,1.63
2022-09-17T15:48:58.808Z,2.03
2022-09-17T15:51:34.601Z,1.48
2022-09-17T15:54:08.125Z,1.75
2022-09-17T15:59:28.115Z,3.90
2022-09-17T16:01:57.518Z,1.98
2022-09-17T16:04:31.102Z,1.55
2022-09-17T16:07:13.308Z,2.75
2022-09-17T16:09:45.974Z,1.20
2022-09-17T16:12:16.066Z,1.67
2022-09-17T16:14:47.551Z,1.90
2022-09-17T16:17:22.191Z,2.25
2022-09-17T16:19:49.181Z,1.63
2022-09-17T16:22:16.226Z,3.22
2022-09-17T16:24:43.236Z,5.68
2022-09-17T16:27:19.301Z,3.83
2022-09-17T16:29:46.426Z,4.53
2022-09-17T16:32:15.226Z,4.60
2022-09-17T16:34:42.281Z,4.43
2022-09-17T16:37:11.401Z,3.00
2022-09-17T16:39:38.446Z,2.50
2022-09-17T16:42:05.656Z,3.05
2022-09-17T16:44:33.251Z,4.53
2022-09-17T16:47:00.274Z,3.95
2022-09-17T16:49:27.395Z,2.50
2022-09-17T16:51:54.356Z,4.90
2022-09-17T16:54:21.436Z,2.45
2022-09-17T16:56:48.591Z,1.60
2022-09-17T16:59:15.596Z,1.27
2022-09-17T17:01:43.607Z,1.80
2022-09-17T17:04:10.630Z,1.27
2022-09-17T17:06:37.610Z,2.53
2022-09-17T17:09:04.635Z,2.08
2022-09-17T17:11:31.623Z,2.60
2022-09-17T17:13:58.892Z,3.17
2022-09-17T17:16:26.063Z,1.55
2022-09-17T17:18:55.865Z,1.73
2022-09-17T17:21:23.091Z,2.67
2022-09-17T17:23:50.281Z,0.93
2022-09-17T17:26:17.730Z,2.30
2022-09-17T17:28:44.781Z,1.60
2022-09-17T17:31:12.154Z,1.92
2022-09-17T17:33:39.171Z,1.70
2022-09-17T17:36:08.523Z,2.30
2022-09-17T17:38:36.461Z,4.10
2022-09-17T17:41:13.854Z,2.67
2022-09-17T17:43:41.626Z,2.17
2022-09-17T17:46:10.584Z,2.90
2022-09-17T17:48:38.390Z,5.18
2022-09-17T17:51:07.931Z,3.80
2022-09-17T17:53:36.061Z,4.35
2022-09-17T17:56:06.610Z,7.57
2022-09-17T17:58:33.826Z,4.53
2022-09-17T18:01:08.835Z,4.55
2022-09-17T18:03:35.747Z,3.75
2022-09-17T18:06:05.614Z,5.28
2022-09-17T18:08:32.982Z,3.90
2022-09-17T18:11:00.431Z,3.97
2022-09-17T18:13:27.461Z,5.32
2022-09-17T18:15:56.767Z,4.35
2022-09-17T18:18:25.251Z,2.47
2022-09-17T18:20:54.045Z,2.90
2022-09-17T18:23:21.506Z,4.93
2022-09-17T18:25:56.101Z,2.75
2022-09-17T18:28:23.333Z,2.72
2022-09-17T18:30:50.625Z,4.47
2022-09-17T18:33:26.947Z,2.70
2022-09-17T18:35:57.346Z,2.90
2022-09-17T18:38:24.516Z,3.13
2022-09-17T18:40:51.939Z,3.10
2022-09-17T18:43:19.292Z,2.80
2022-09-17T18:45:56.755Z,3.13
2022-09-17T18:48:25.041Z,2.38
2022-09-17T18:50:59.685Z,2.20
2022-09-17T18:53:28.700Z,2.28
2022-09-17T18:56:03.504Z,2.28
2022-09-17T18:58:30.518Z,2.60
2022-09-17T19:00:57.722Z,1.92
2022-09-17T19:03:24.744Z,2.22
2022-09-17T19:05:51.766Z,2.33
2022-09-17T19:08:23.035Z,2.10
2022-09-17T19:10:53.445Z,2.30
2022-09-17T19:13:21.126Z,1.77
2022-09-17T19:15:48.574Z,3.17
2022-09-17T19:18:15.600Z,2.50
2022-09-17T19:20:42.626Z,2.55
2022-09-17T19:23:09.770Z,2.10
2022-09-17T19:25:37.762Z,2.38
2022-09-17T19:28:05.425Z,2.50
2022-09-17T19:30:32.866Z,3.17
2022-09-17T19:33:00.355Z,3.35
2022-09-17T19:35:28.016Z,2.17
2022-09-17T19:37:58.825Z,3.75
2022-09-17T19:40:26.143Z,1.95
2022-09-17T19:42:54.376Z,2.22
2022-09-17T19:45:22.893Z,3.50
2022-09-17T19:47:51.376Z,2.58
2022-09-17T19:50:19.161Z,2.58
2022-09-17T19:52:46.101Z,2.92
2022-09-17T19:55:13.223Z,3.03
2022-09-17T19:57:40.836Z,2.45
2022-09-17T20:00:11.537Z,2.80
2022-09-17T20:02:39.225Z,3.88
2022-09-17T20:05:06.665Z,2.10
2022-09-17T20:07:34.096Z,2.97
2022-09-17T20:10:01.197Z,2.22
2022-09-17T20:12:28.141Z,2.75
2022-09-17T20:14:55.081Z,2.25
2022-09-17T20:17:22.121Z,2.25
2022-09-17T20:19:49.135Z,2.03
2022-09-17T20:22:16.065Z,2.28
2022-09-17T20:24:45.585Z,2.00
2022-09-17T20:27:14.630Z,2.08
2022-09-17T20:29:41.687Z,1.55
2022-09-17T20:32:08.625Z,1.90
2022-09-17T20:34:35.586Z,1.50
2022-09-17T20:37:13.184Z,3.50
2022-09-17T20:39:40.440Z,1.85
2022-09-17T20:42:07.540Z,2.25
2022-09-17T20:44:34.547Z,2.20
2022-09-17T20:47:01.959Z,1.58
2022-09-17T20:49:29.945Z,3.42
2022-09-17T20:51:57.606Z,2.38
2022-09-17T20:54:24.639Z,2.28
2022-09-17T20:56:51.621Z,1.83
2022-09-17T20:59:19.391Z,2.90
2022-09-17T21:01:49.748Z,1.38
2022-09-17T21:04:21.100Z,2.25
2022-09-17T21:06:52.632Z,1.55
2022-09-17T21:09:20.092Z,1.67
2022-09-17T21:11:48.943Z,1.95
2022-09-17T21:14:17.333Z,1.65
2022-09-17T21:16:45.223Z,2.08
2022-09-17T21:19:13.320Z,1.75
2022-09-17T21:21:40.328Z,1.23
2022-09-17T21:24:10.278Z,2.75
2022-09-17T21:26:37.510Z,1.92
2022-09-17T21:29:04.948Z,2.08
2022-09-17T21:31:34.706Z,2.30
2022-09-17T21:34:03.711Z,2.28
2022-09-17T21:36:33.697Z,2.55
2022-09-17T21:39:04.185Z,2.67
2022-09-17T21:41:31.883Z,1.55
2022-09-17T21:43:59.366Z,1.52
2022-09-17T21:46:28.999Z,2.17
2022-09-17T21:49:00.238Z,1.73
2022-09-17T21:51:30.835Z,1.73
2022-09-17T21:54:03.375Z,2.22
2022-09-17T21:56:31.518Z,1.60
2022-09-17T21:59:01.312Z,1.08
2022-09-17T22:01:35.797Z,2.13
2022-09-17T22:04:03.040Z,1.42
2022-09-17T22:06:31.953Z,3.40
2022-09-17T22:09:00.500Z,1.50
2022-09-17T22:11:31.332Z,1.33
2022-09-17T22:14:09.226Z,1.10
2022-09-17T22:16:39.466Z,1.33
2022-09-17T22:19:07.140Z,1.33
2022-09-17T22:21:36.997Z,1.50
2022-09-17T22:24:05.925Z,1.67
2022-09-17T22:26:35.531Z,1.45
2022-09-17T22:29:04.897Z,1.15
2022-09-17T22:31:32.108Z,1.13
2022-09-17T22:33:59.635Z,1.75
2022-09-17T22:36:27.296Z,1.13
2022-09-17T22:38:56.477Z,1.15
2022-09-17T22:41:26.485Z,1.90
2022-09-17T22:44:01.658Z,2.08
2022-09-17T22:46:31.359Z,1.33
2022-09-17T22:48:58.739Z,1.55
2022-09-17T22:51:27.756Z,1.30
2022-09-17T22:53:55.185Z,1.20
2022-09-17T22:56:23.556Z,1.30
2022-09-17T22:58:51.227Z,1.80
2022-09-17T23:01:21.274Z,2.05
2022-09-17T23:03:50.594Z,1.40
2022-09-17T23:06:20.520Z,1.52
2022-09-17T23:08:48.208Z,1.38
2022-09-17T23:11:19.325Z,1.27
2022-09-17T23:13:47.056Z,1.35
2022-09-17T23:16:14.168Z,0.95
2022-09-17T23:18:41.628Z,2.20
2022-09-17T23:21:18.742Z,1.38
2022-09-17T23:23:48.237Z,0.80
2022-09-17T23:26:19.316Z,1.00
2022-09-17T23:28:46.650Z,0.63
2022-09-17T23:31:21.990Z,0.90
2022-09-17T23:36:21.836Z,1.90
2022-09-17T23:38:49.347Z,1.13
2022-09-17T23:41:19.957Z,1.63
2022-09-17T23:43:51.945Z,1.27
2022-09-17T23:46:20.654Z,2.30
2022-09-17T23:48:48.884Z,2.95
2022-09-17T23:51:19.125Z,1.35
2022-09-17T23:53:48.116Z,1.30
2022-09-17T23:56:21.487Z,1.85
2022-09-17T23:58:49.815Z,0.95
